createdAt,value
2022-12-06T00:01:29.274Z,63.08
2022-12-06T00:04:31.110Z,70.75
2022-12-06T00:07:32.087Z,62.60
2022-12-06T00:10:12.805Z,68.28
2022-12-06T00:12:39.802Z,71.57
2022-12-06T00:15:07.391Z,73.07
2022-12-06T00:17:37.641Z,60.60
2022-12-06T00:20:09.877Z,59.72
2022-12-06T00:23:00.089Z,69.82
2022-12-06T00:25:41.273Z,74.78
2022-12-06T00:28:09.372Z,78.80
2022-12-06T00:30:36.400Z,73.43
2022-12-06T00:33:04.135Z,68.30
2022-12-06T00:35:31.284Z,68.25
2022-12-06T00:38:18.143Z,59.78
2022-12-06T00:41:22.085Z,64.22
2022-12-06T00:44:02.747Z,70.32
2022-12-06T00:46:32.430Z,66.53
2022-12-06T00:49:03.722Z,65.43
2022-12-06T00:51:52.184Z,55.22
2022-12-06T00:54:33.394Z,52.80
2022-12-06T00:57:01.336Z,55.30
2022-12-06T00:59:28.686Z,54.47
2022-12-06T01:01:55.658Z,50.03
2022-12-06T01:04:24.010Z,53.78
2022-12-06T01:06:51.535Z,47.45
2022-12-06T01:09:18.830Z,40.17
2022-12-06T01:11:45.760Z,45.65
2022-12-06T01:14:12.856Z,43.67
2022-12-06T01:16:39.863Z,40.75
2022-12-06T01:19:07.282Z,39.10
2022-12-06T01:21:34.552Z,37.45
2022-12-06T01:24:01.573Z,34.20
2022-12-06T01:26:31.727Z,36.70
2022-12-06T01:28:59.898Z,38.92
2022-12-06T01:31:48.137Z,51.50
2022-12-06T01:34:50.768Z,40.03
2022-12-06T01:37:51.234Z,80.22
2022-12-06T01:40:47.214Z,77.13
2022-12-06T01:43:42.409Z,61.92
2022-12-06T01:46:31.209Z,68.10
2022-12-06T01:49:05.886Z,55.25
2022-12-06T01:51:34.652Z,44.67
2022-12-06T01:54:03.956Z,40.08
2022-12-06T01:56:32.597Z,59.47
2022-12-06T01:59:01.414Z,56.20
2022-12-06T02:01:30.236Z,51.03
2022-12-06T02:03:59.804Z,42.92
2022-12-06T02:06:29.406Z,34.70
2022-12-06T02:08:59.910Z,42.83
2022-12-06T02:11:30.778Z,53.45
2022-12-06T02:14:05.578Z,43.53
2022-12-06T02:16:57.384Z,39.40
2022-12-06T02:19:58.236Z,60.47
2022-12-06T02:22:46.557Z,30.73
2022-12-06T02:25:25.593Z,33.40
2022-12-06T02:28:40.146Z,36.40
2022-12-06T02:31:50.696Z,34.92
2022-12-06T02:34:46.222Z,37.08
2022-12-06T02:38:12.716Z,42.22
2022-12-06T02:41:20.179Z,99.45
2022-12-06T02:44:27.148Z,112.03
2022-12-06T02:47:11.721Z,42.22
2022-12-06T02:49:49.655Z,126.57
2022-12-06T02:52:20.336Z,82.80
2022-12-06T02:54:50.279Z,57.92
2022-12-06T02:57:23.730Z,112.13
2022-12-06T02:59:53.017Z,51.45
2022-12-06T03:02:23.834Z,35.28
2022-12-06T03:05:00.814Z,63.80
2022-12-06T03:07:40.047Z,72.95
2022-12-06T03:10:15.806Z,100.68
2022-12-06T03:13:11.042Z,116.10
2022-12-06T03:16:00.555Z,147.35
2022-12-06T03:18:50.313Z,106.38
2022-12-06T03:22:04.170Z,91.43
2022-12-06T03:24:46.003Z,110.15
2022-12-06T03:27:18.010Z,174.15
2022-12-06T03:29:58.219Z,124.82
2022-12-06T03:32:30.839Z,59.10
2022-12-06T03:35:04.103Z,138.02
2022-12-06T03:38:19.186Z,99.72
2022-12-06T03:41:22.216Z,102.40
2022-12-06T03:43:59.573Z,76.45
2022-12-06T03:46:38.931Z,90.75
2022-12-06T03:49:11.610Z,56.60
2022-12-06T03:51:41.005Z,85.70
2022-12-06T03:54:08.668Z,64.35
2022-12-06T03:56:37.693Z,38.58
2022-12-06T03:59:06.225Z,31.20
2022-12-06T04:01:53.236Z,75.53
2022-12-06T04:04:54.221Z,95.88
2022-12-06T04:07:34.804Z,88.90
2022-12-06T04:10:05.261Z,60.72
2022-12-06T04:12:53.693Z,48.20
2022-12-06T04:15:22.121Z,47.78
2022-12-06T04:18:20.189Z,36.45
2022-12-06T04:21:23.029Z,55.85
2022-12-06T04:23:52.304Z,47.05
2022-12-06T04:26:22.025Z,62.65
2022-12-06T04:29:08.610Z,37.10
2022-12-06T04:31:55.330Z,43.55
2022-12-06T04:34:40.958Z,71.55
2022-12-06T04:37:47.199Z,47.38
2022-12-06T04:40:27.801Z,68.53
2022-12-06T04:43:24.404Z,71.40
2022-12-06T04:45:51.735Z,117.50
2022-12-06T04:48:18.712Z,101.63
2022-12-06T04:50:50.071Z,67.10
2022-12-06T04:53:17.753Z,54.95
2022-12-06T04:55:48.443Z,55.88
2022-12-06T04:58:15.927Z,73.65
2022-12-06T05:00:43.809Z,135.27
2022-12-06T05:03:12.314Z,138.52
2022-12-06T05:05:40.533Z,101.20
2022-12-06T05:08:07.828Z,161.15
2022-12-06T05:10:34.932Z,105.57
2022-12-06T05:13:22.218Z,196.68
2022-12-06T05:16:23.268Z,120.22
2022-12-06T05:19:04.168Z,162.93
2022-12-06T05:21:31.508Z,57.85
2022-12-06T05:23:59.616Z,85.38
2022-12-06T05:26:29.130Z,86.72
2022-12-06T05:28:59.265Z,104.35
2022-12-06T05:31:27.790Z,58.53
2022-12-06T05:33:55.247Z,64.93
2022-12-06T05:36:25.061Z,118.22
2022-12-06T05:39:12.259Z,85.88
2022-12-06T05:41:53.131Z,93.57
2022-12-06T05:44:20.109Z,75.97
2022-12-06T05:47:00.750Z,108.97
2022-12-06T05:49:41.651Z,113.70
2022-12-06T05:52:10.509Z,150.82
2022-12-06T05:54:37.503Z,80.85
2022-12-06T05:57:04.508Z,128.85
2022-12-06T05:59:31.693Z,128.35
2022-12-06T06:02:19.081Z,193.45
2022-12-06T06:04:59.792Z,127.45
2022-12-06T06:07:47.307Z,124.22
2022-12-06T06:10:27.851Z,123.45
2022-12-06T06:13:15.241Z,91.85
2022-12-06T06:16:16.308Z,179.80
2022-12-06T06:18:56.840Z,123.63
2022-12-06T06:21:23.752Z,73.35
2022-12-06T06:23:50.902Z,81.68
2022-12-06T06:26:18.744Z,83.32
2022-12-06T06:28:45.660Z,77.07
2022-12-06T06:31:12.598Z,55.88
2022-12-06T06:33:39.639Z,86.13
2022-12-06T06:36:07.014Z,78.25
2022-12-06T06:38:54.278Z,70.45
2022-12-06T06:41:55.258Z,82.68
2022-12-06T06:44:35.904Z,80.03
2022-12-06T06:47:02.824Z,90.10
2022-12-06T06:49:50.486Z,71.28
2022-12-06T06:52:36.809Z,111.80
2022-12-06T06:55:04.161Z,75.13
2022-12-06T06:57:31.101Z,70.28
2022-12-06T06:59:59.145Z,100.28
2022-12-06T07:02:47.566Z,73.13
2022-12-06T07:05:27.988Z,74.63
2022-12-06T07:07:58.892Z,63.38
2022-12-06T07:10:27.980Z,53.47
2022-12-06T07:12:55.029Z,102.15
2022-12-06T07:15:21.920Z,73.53
2022-12-06T07:17:51.505Z,72.32
2022-12-06T07:20:19.011Z,122.80
2022-12-06T07:22:46.261Z,118.30
2022-12-06T07:25:13.996Z,89.13
2022-12-06T07:27:40.964Z,63.97
2022-12-06T07:30:08.764Z,122.13
2022-12-06T07:32:37.145Z,72.15
2022-12-06T07:35:05.000Z,91.47
2022-12-06T07:37:55.400Z,98.95
2022-12-06T07:41:04.487Z,122.60
2022-12-06T07:44:04.948Z,56.58
2022-12-06T07:46:32.092Z,72.57
2022-12-06T07:48:59.413Z,93.10
2022-12-06T07:51:26.622Z,98.80
2022-12-06T07:53:54.729Z,73.97
2022-12-06T07:56:43.356Z,73.57
2022-12-06T07:59:26.195Z,90.85
2022-12-06T08:01:54.212Z,66.57
2022-12-06T08:04:22.210Z,64.03
2022-12-06T08:06:49.562Z,57.00
2022-12-06T08:09:17.980Z,59.30
2022-12-06T08:11:44.841Z,76.05
2022-12-06T08:14:32.308Z,60.60
2022-12-06T08:17:13.106Z,76.20
2022-12-06T08:19:40.564Z,72.60
2022-12-06T08:22:07.494Z,75.85
2022-12-06T08:24:35.026Z,54.65
2022-12-06T08:27:02.109Z,45.97
2022-12-06T08:29:28.997Z,55.95
2022-12-06T08:31:55.913Z,54.50
2022-12-06T08:34:23.248Z,56.42
2022-12-06T08:37:10.348Z,53.60
2022-12-06T08:40:11.381Z,57.00
2022-12-06T08:43:12.370Z,58.65
2022-12-06T08:46:13.342Z,59.50
2022-12-06T08:49:15.350Z,54.92
2022-12-06T08:52:16.527Z,58.55
2022-12-06T08:55:17.527Z,42.00
2022-12-06T08:57:57.975Z,51.22
2022-12-06T09:00:24.978Z,57.92
2022-12-06T09:02:51.912Z,48.22
2022-12-06T09:05:18.825Z,52.90
2022-12-06T09:07:45.690Z,55.05
2022-12-06T09:10:12.811Z,43.40
2022-12-06T09:12:39.842Z,54.47
2022-12-06T09:15:07.058Z,53.50
2022-12-06T09:17:33.911Z,51.00
2022-12-06T09:20:05.463Z,46.58
2022-12-06T09:22:33.163Z,47.35
2022-12-06T09:25:00.143Z,52.30
2022-12-06T09:27:30.226Z,63.03
2022-12-06T09:29:57.327Z,63.78
2022-12-06T09:32:24.758Z,57.33
2022-12-06T09:35:15.248Z,63.58
2022-12-06T09:38:16.346Z,63.30
2022-12-06T09:41:40.448Z,66.82
2022-12-06T09:44:42.207Z,66.60
2022-12-06T09:47:40.384Z,63.10
2022-12-06T09:51:05.479Z,55.38
2022-12-06T09:53:55.109Z,60.00
2022-12-06T09:56:34.059Z,47.25
2022-12-06T09:59:22.826Z,41.08
2022-12-06T10:02:11.867Z,47.13
2022-12-06T10:04:55.538Z,44.22
2022-12-06T10:07:45.254Z,45.30
2022-12-06T10:10:31.106Z,41.45
2022-12-06T10:13:08.627Z,41.83
2022-12-06T10:15:35.561Z,42.55
2022-12-06T10:18:08.491Z,49.10
2022-12-06T10:20:41.496Z,35.20
2022-12-06T10:23:30.257Z,44.10
2022-12-06T10:26:19.644Z,28.05
2022-12-06T10:29:09.175Z,33.25
2022-12-06T10:31:57.076Z,27.17
2022-12-06T10:34:44.432Z,33.47
2022-12-06T10:38:15.419Z,31.38
2022-12-06T10:41:47.408Z,26.85
2022-12-06T10:44:58.413Z,31.25
2022-12-06T10:47:59.425Z,30.00
2022-12-06T10:50:42.393Z,35.33
2022-12-06T10:53:17.249Z,38.58
2022-12-06T10:56:09.945Z,34.70
2022-12-06T10:58:58.660Z,36.08
2022-12-06T11:01:31.811Z,36.88
2022-12-06T11:04:27.406Z,35.60
2022-12-06T11:07:34.465Z,36.38
2022-12-06T11:10:22.099Z,47.15
2022-12-06T11:15:25.527Z,44.00
2022-12-06T11:18:17.617Z,43.90
2022-12-06T11:21:23.441Z,43.33
2022-12-06T11:23:56.607Z,45.97
2022-12-06T11:26:34.987Z,45.97
2022-12-06T11:29:06.861Z,44.03
2022-12-06T11:31:37.950Z,45.88
2022-12-06T11:34:37.401Z,52.28
2022-12-06T11:37:44.609Z,42.20
2022-12-06T11:40:43.499Z,54.25
2022-12-06T11:43:32.243Z,43.47
2022-12-06T11:45:59.233Z,50.42
2022-12-06T11:48:31.143Z,49.50
2022-12-06T11:50:58.282Z,45.00
2022-12-06T11:54:07.418Z,46.80
2022-12-06T11:57:12.423Z,46.42
2022-12-06T12:00:12.093Z,51.72
2022-12-06T12:02:44.007Z,47.08
2022-12-06T12:05:22.100Z,60.58
2022-12-06T12:08:18.613Z,48.38
2022-12-06T12:11:20.452Z,46.00
2022-12-06T12:14:04.095Z,41.47
2022-12-06T12:16:58.523Z,46.15
2022-12-06T12:20:05.291Z,47.03
2022-12-06T12:22:39.036Z,42.97
2022-12-06T12:25:24.078Z,41.95
2022-12-06T12:27:59.170Z,49.83
2022-12-06T12:30:34.560Z,45.35
2022-12-06T12:33:14.588Z,45.55
2022-12-06T12:35:44.945Z,40.35
2022-12-06T12:38:40.487Z,39.78
2022-12-06T12:41:47.784Z,47.08
2022-12-06T12:44:52.543Z,40.42
2022-12-06T12:50:34.007Z,37.47
2022-12-06T12:53:00.895Z,46.10
2022-12-06T12:55:30.347Z,37.90
2022-12-06T12:58:24.484Z,38.33
2022-12-06T13:01:27.727Z,32.17
2022-12-06T13:04:07.311Z,38.08
2022-12-06T13:06:37.290Z,41.28
2022-12-06T13:09:06.375Z,35.13
2022-12-06T13:11:42.915Z,30.45
2022-12-06T13:14:18.506Z,30.13
2022-12-06T13:16:48.124Z,27.90
2022-12-06T13:19:18.739Z,29.70
2022-12-06T13:21:47.147Z,35.67
2022-12-06T13:24:25.367Z,21.08
2022-12-06T13:26:57.727Z,20.48
2022-12-06T13:29:31.558Z,22.75
2022-12-06T13:32:01.903Z,19.95
2022-12-06T13:34:57.480Z,23.08
2022-12-06T13:38:05.478Z,17.42
2022-12-06T13:41:08.585Z,29.52
2022-12-06T13:43:49.684Z,28.88
2022-12-06T13:46:29.392Z,20.73
2022-12-06T13:49:24.781Z,19.48
2022-12-06T13:52:11.484Z,18.27
2022-12-06T13:55:17.260Z,20.42
2022-12-06T13:58:11.493Z,18.10
2022-12-06T14:01:12.592Z,24.55
2022-12-06T14:03:56.925Z,21.05
2022-12-06T14:06:42.532Z,21.90
2022-12-06T14:09:11.396Z,19.42
2022-12-06T14:11:40.095Z,25.88
2022-12-06T14:14:15.873Z,19.52
2022-12-06T14:17:26.766Z,25.48
2022-12-06T14:43:49.576Z,16.93
2022-12-06T14:46:33.583Z,18.80
2022-12-06T14:50:05.003Z,18.50
2022-12-06T14:53:02.590Z,15.77
2022-12-06T14:56:12.986Z,22.70
2022-12-06T14:59:04.891Z,20.93
2022-12-06T15:01:58.492Z,23.60
2022-12-06T15:04:43.430Z,19.65
2022-12-06T15:07:53.581Z,28.92
2022-12-06T15:10:40.845Z,37.22
2022-12-06T15:13:20.815Z,22.58
2022-12-06T15:16:10.055Z,27.40
2022-12-06T15:19:00.807Z,33.53
2022-12-06T15:21:35.489Z,29.08
2022-12-06T15:24:02.697Z,35.42
2022-12-06T15:26:44.196Z,30.50
2022-12-06T15:29:14.479Z,27.77
2022-12-06T15:35:19.924Z,34.58
2022-12-06T15:38:27.636Z,33.05
2022-12-06T15:41:48.866Z,23.75
2022-12-06T15:47:28.646Z,29.58
2022-12-06T15:50:14.628Z,23.85
2022-12-06T15:52:42.573Z,31.70
2022-12-06T15:55:44.280Z,27.25
2022-12-06T15:59:08.097Z,28.27
2022-12-06T16:04:55.714Z,21.00
2022-12-06T16:08:03.110Z,27.02
2022-12-06T16:13:33.930Z,42.92
2022-12-06T16:16:08.126Z,45.08
2022-12-06T16:19:45.634Z,34.60
2022-12-06T16:22:56.913Z,38.22
2022-12-06T16:25:45.896Z,42.58
2022-12-06T16:28:33.753Z,50.47
2022-12-06T16:31:45.623Z,42.50
2022-12-06T16:34:37.416Z,51.92
2022-12-06T16:37:36.711Z,51.72
2022-12-06T16:43:21.158Z,52.97
2022-12-06T16:51:56.786Z,38.47
2022-12-06T16:58:12.567Z,41.90
2022-12-06T17:01:30.875Z,42.08
2022-12-06T17:04:43.877Z,53.25
2022-12-06T17:07:47.504Z,44.83
2022-12-06T17:10:37.083Z,48.55
2022-12-06T17:17:02.294Z,48.75
2022-12-06T17:22:57.858Z,58.75
2022-12-06T17:25:45.121Z,79.50
2022-12-06T17:28:37.233Z,58.22
2022-12-06T17:31:26.238Z,100.85
2022-12-06T17:34:07.301Z,202.77
2022-12-06T17:36:59.739Z,147.35
2022-12-06T17:39:43.872Z,359.58
2022-12-06T17:42:53.805Z,296.52
2022-12-06T17:49:02.951Z,320.48
2022-12-06T17:56:48.213Z,155.60
2022-12-06T17:59:38.375Z,252.25
2022-12-06T18:02:31.917Z,81.65
2022-12-06T18:05:39.643Z,108.47
2022-12-06T18:09:05.215Z,77.53
2022-12-06T18:11:41.580Z,144.15
2022-12-06T18:20:18.188Z,88.63
2022-12-06T18:23:02.412Z,72.45
2022-12-06T18:26:13.590Z,88.28
2022-12-06T18:29:11.821Z,125.82
2022-12-06T18:34:16.638Z,96.40
2022-12-06T18:41:22.854Z,114.00
2022-12-06T18:44:19.175Z,86.75
2022-12-06T18:46:49.884Z,61.03
2022-12-06T18:49:22.517Z,53.63
2022-12-06T18:52:11.071Z,93.55
2022-12-06T18:54:43.999Z,39.65
2022-12-06T18:57:40.787Z,54.08
2022-12-06T19:00:15.848Z,42.25
2022-12-06T19:02:55.184Z,45.45
2022-12-06T19:06:01.383Z,43.85
2022-12-06T19:08:23.546Z,45.33
2022-12-06T19:10:53.586Z,103.47
2022-12-06T19:13:21.321Z,77.80
2022-12-06T19:19:12.796Z,366.58
2022-12-06T19:22:21.521Z,122.97
2022-12-06T19:25:40.014Z,75.68
2022-12-06T19:28:26.154Z,113.82
2022-12-06T19:31:01.471Z,55.47
2022-12-06T19:34:30.886Z,93.30
2022-12-06T19:37:40.715Z,138.75
2022-12-06T19:40:22.468Z,153.65
2022-12-06T19:43:15.066Z,142.18
2022-12-06T19:45:50.056Z,116.38
2022-12-06T19:48:28.205Z,99.57
2022-12-06T19:53:44.095Z,79.60
2022-12-06T19:56:26.858Z,41.40
2022-12-06T19:59:34.758Z,40.95
2022-12-06T20:02:35.179Z,101.80
2022-12-06T20:05:16.512Z,170.10
2022-12-06T20:11:35.504Z,88.68
2022-12-06T20:14:22.868Z,77.25
2022-12-06T20:16:53.094Z,54.78
2022-12-06T20:23:55.416Z,59.38
2022-12-06T20:26:26.916Z,65.95
2022-12-06T20:29:14.234Z,25.65
2022-12-06T20:31:42.860Z,62.50
2022-12-06T20:34:44.929Z,36.70
2022-12-06T20:37:51.836Z,70.25
2022-12-06T20:40:40.052Z,80.17
2022-12-06T20:43:12.054Z,80.57
2022-12-06T20:45:39.276Z,53.50
2022-12-06T20:48:28.827Z,89.68
2022-12-06T20:51:28.204Z,48.58
2022-12-06T20:54:07.807Z,94.57
2022-12-06T20:56:48.756Z,91.13
2022-12-06T20:59:42.472Z,74.10
2022-12-06T21:02:15.068Z,70.22
2022-12-06T21:04:49.988Z,91.28
2022-12-06T21:07:24.656Z,58.88
2022-12-06T21:10:29.924Z,53.05
2022-12-06T21:13:06.182Z,57.13
2022-12-06T21:15:34.283Z,97.07
2022-12-06T21:18:30.129Z,87.65
2022-12-06T21:24:24.166Z,79.47
2022-12-06T21:26:55.633Z,133.88
2022-12-06T21:29:40.913Z,79.50
2022-12-06T21:32:39.657Z,43.22
2022-12-06T21:35:40.986Z,146.57
2022-12-06T21:38:50.938Z,41.65
2022-12-06T21:41:31.569Z,52.22
2022-12-06T21:44:22.882Z,111.93
2022-12-06T21:47:17.772Z,153.25
2022-12-06T21:50:12.036Z,87.00
2022-12-06T21:53:15.083Z,217.02
2022-12-06T21:56:17.950Z,128.20
2022-12-06T22:04:33.277Z,70.32
2022-12-06T22:07:11.076Z,82.72
2022-12-06T22:10:04.828Z,54.15
2022-12-06T22:12:51.324Z,94.20
2022-12-06T22:15:18.531Z,65.63
2022-12-06T22:18:10.035Z,84.88
2022-12-06T22:21:10.881Z,60.97
2022-12-06T22:24:01.869Z,52.25
2022-12-06T22:26:41.977Z,72.88
2022-12-06T22:29:14.306Z,86.30
2022-12-06T22:31:44.491Z,94.13
2022-12-06T22:34:15.394Z,50.00
2022-12-06T22:39:40.705Z,92.63
2022-12-06T22:43:04.758Z,66.97
2022-12-06T22:49:07.982Z,78.05
2022-12-06T22:51:42.518Z,73.75
2022-12-06T22:54:39.409Z,48.30
2022-12-06T22:57:06.676Z,69.43
2022-12-06T22:59:54.924Z,52.47
2022-12-06T23:02:25.402Z,75.07
2022-12-06T23:04:55.685Z,57.38
2022-12-06T23:07:22.838Z,60.22
2022-12-06T23:09:50.563Z,53.50
2022-12-06T23:12:17.735Z,95.15
2022-12-06T23:14:50.143Z,73.07
2022-12-06T23:17:27.204Z,58.17
2022-12-06T23:19:56.912Z,74.55
2022-12-06T23:22:25.134Z,65.63
2022-12-06T23:24:56.388Z,103.75
2022-12-06T23:27:45.828Z,55.42
2022-12-06T23:30:41.330Z,33.63
2022-12-06T23:33:29.475Z,29.73
2022-12-06T23:40:20.488Z,29.95
2022-12-06T23:42:56.550Z,55.38
2022-12-06T23:45:23.706Z,63.15
2022-12-06T23:48:12.796Z,65.75
2022-12-06T23:51:48.992Z,46.47
2022-12-06T23:58:13.564Z,68.28
